Naas, Ireland
Current Conditions -  °F | °C
As of 8:00 AM on Sunday 21 Dec 2014 (Local Time) from EIME Reporting Station
Broken Clouds Broken Clouds  
Wind Chill: 40°   Ceiling: 1500
Heat Index: 48°   Visibility: 6mi
Dew Point: 46°   Wind: 24mph
Humidity: 93%   Direction: 220°SW
Pressure: 30.12"   Gusts: 36mph
Location:  53.22°N, 6.68°W
Report Text: EIME 210800Z 22021G31KT 9999 BKN015 BKN024 09/08 Q1020
Loading
Personal Weather Stations






























Interactive Weather Map New forecast layout! Learn more

10-Day Weather Forecast

Advertisements
Track Severe Weather on mobile